createdAt,value
2022-10-29T00:01:18.522Z,8.10
2022-10-29T00:06:12.616Z,8.13
2022-10-29T00:08:40.598Z,7.90
2022-10-29T00:11:16.726Z,8.20
2022-10-29T00:13:44.358Z,7.82
2022-10-29T00:19:04.901Z,8.20
2022-10-29T00:24:18.927Z,8.52
2022-10-29T00:29:32.346Z,8.10
2022-10-29T00:34:45.754Z,7.63
2022-10-29T00:37:12.543Z,8.70
2022-10-29T00:39:39.434Z,8.98
2022-10-29T00:42:06.274Z,9.00
2022-10-29T00:47:19.432Z,8.90
2022-10-29T00:50:14.174Z,8.70
2022-10-29T00:52:45.843Z,8.18
2022-10-29T00:55:14.913Z,7.53
2022-10-29T00:57:46.700Z,7.50
2022-10-29T01:00:13.906Z,7.38
2022-10-29T01:02:42.156Z,7.93
2022-10-29T01:05:09.907Z,7.35
2022-10-29T01:07:37.065Z,7.30
2022-10-29T01:10:04.419Z,7.00
2022-10-29T01:12:52.844Z,6.90
2022-10-29T01:15:37.127Z,7.72
2022-10-29T01:18:09.589Z,6.65
2022-10-29T01:21:04.050Z,6.63
2022-10-29T01:30:26.336Z,6.82
2022-10-29T01:33:07.159Z,6.60
2022-10-29T01:36:06.138Z,7.00
2022-10-29T01:38:39.047Z,6.50
2022-10-29T01:44:55.907Z,6.88
2022-10-29T01:47:27.905Z,6.63
2022-10-29T01:50:00.421Z,6.60
2022-10-29T01:52:31.783Z,6.40
2022-10-29T01:54:58.951Z,6.65
2022-10-29T01:57:25.655Z,6.40
2022-10-29T01:59:56.065Z,6.75
2022-10-29T02:02:48.488Z,6.90
2022-10-29T02:05:36.535Z,6.57
2022-10-29T02:08:15.577Z,6.75
2022-10-29T02:10:56.960Z,6.90
2022-10-29T02:13:31.465Z,6.50
2022-10-29T02:16:00.288Z,6.65
2022-10-29T02:18:27.066Z,6.57
2022-10-29T02:20:53.878Z,6.85
2022-10-29T02:23:20.649Z,7.40
2022-10-29T02:25:47.502Z,6.63
2022-10-29T02:28:14.363Z,6.80
2022-10-29T02:30:41.181Z,7.00
2022-10-29T02:33:07.994Z,6.85
2022-10-29T02:35:34.797Z,6.40
2022-10-29T02:38:01.499Z,6.65
2022-10-29T02:40:28.290Z,6.43
2022-10-29T02:42:55.390Z,6.57
2022-10-29T02:45:22.337Z,6.25
2022-10-29T02:47:49.074Z,6.70
2022-10-29T02:50:15.930Z,7.18
2022-10-29T02:52:42.705Z,7.05
2022-10-29T02:55:09.714Z,6.40
2022-10-29T02:57:36.450Z,6.90
2022-10-29T03:00:03.819Z,6.72
2022-10-29T03:02:30.650Z,7.22
2022-10-29T03:04:57.508Z,6.70
2022-10-29T03:07:24.242Z,6.88
2022-10-29T03:09:51.044Z,6.87
2022-10-29T03:12:17.817Z,8.30
2022-10-29T03:17:31.204Z,8.00
2022-10-29T03:22:24.578Z,8.15
2022-10-29T03:24:51.297Z,8.18
2022-10-29T03:30:05.100Z,10.07
2022-10-29T03:34:59.959Z,10.10
2022-10-29T03:37:26.918Z,9.30
2022-10-29T03:42:40.269Z,9.88
2022-10-29T03:45:07.562Z,9.27
2022-10-29T03:47:34.372Z,10.05
2022-10-29T03:50:01.208Z,10.15
2022-10-29T03:52:28.134Z,10.50
2022-10-29T03:54:54.905Z,10.00
2022-10-29T03:57:21.688Z,9.60
2022-10-29T03:59:51.545Z,9.20
2022-10-29T04:02:20.031Z,9.40
2022-10-29T04:04:46.922Z,9.40
2022-10-29T04:07:13.807Z,9.52
2022-10-29T04:09:40.777Z,9.05
2022-10-29T04:12:08.356Z,9.00
2022-10-29T04:14:35.284Z,8.40
2022-10-29T04:17:02.099Z,8.57
2022-10-29T04:19:28.917Z,8.70
2022-10-29T04:26:48.035Z,7.97
2022-10-29T04:28:36.886Z,7.47
2022-10-29T04:28:46.402Z,0
2022-10-29T04:30:16.821Z,8.77
2022-10-29T04:32:43.578Z,8.25
2022-10-29T04:37:57.057Z,8.15
2022-10-29T04:40:24.484Z,13.93
2022-10-29T04:42:51.414Z,23.08
2022-10-29T04:45:18.575Z,9.52
2022-10-29T04:47:46.496Z,8.75
2022-10-29T04:50:13.526Z,9.25
2022-10-29T04:52:40.891Z,8.48
2022-10-29T04:55:08.049Z,10.40
2022-10-29T04:57:34.762Z,9.30
2022-10-29T05:00:01.571Z,7.57
2022-10-29T05:02:28.305Z,7.95
2022-10-29T05:02:42.104Z,0
2022-10-29T05:04:55.025Z,7.07
2022-10-29T05:07:21.758Z,6.78
2022-10-29T05:09:48.465Z,8.90
2022-10-29T05:15:01.832Z,9.05
2022-10-29T05:20:15.398Z,8.63
2022-10-29T05:25:30.209Z,7.10
2022-10-29T05:28:09.300Z,7.63
2022-10-29T05:30:36.221Z,7.93
2022-10-29T05:33:06.642Z,7.55
2022-10-29T05:35:33.524Z,8.07
2022-10-29T05:38:00.360Z,7.20
2022-10-29T05:40:27.270Z,7.40
2022-10-29T05:42:54.091Z,7.65
2022-10-29T05:45:20.975Z,7.63
2022-10-29T05:47:47.750Z,7.88
2022-10-29T05:50:14.531Z,7.90
2022-10-29T05:52:41.239Z,7.43
2022-10-29T05:55:08.402Z,8.00
2022-10-29T05:57:35.159Z,7.55
2022-10-29T06:00:02.005Z,10.23
2022-10-29T06:02:28.824Z,11.30
2022-10-29T06:07:43.406Z,7.30
2022-10-29T06:12:57.036Z,9.98
2022-10-29T06:15:23.846Z,8.50
2022-10-29T06:17:51.071Z,8.52
2022-10-29T06:20:20.211Z,8.60
2022-10-29T06:25:33.698Z,9.43
2022-10-29T06:28:09.470Z,10.85
2022-10-29T06:30:36.971Z,11.60
2022-10-29T06:33:05.472Z,9.35
2022-10-29T06:35:32.641Z,9.50
2022-10-29T06:38:00.071Z,9.80
2022-10-29T06:40:27.270Z,10.77
2022-10-29T06:43:01.685Z,9.55
2022-10-29T06:45:29.259Z,9.18
2022-10-29T06:47:56.460Z,7.60
2022-10-29T06:50:23.719Z,8.88
2022-10-29T06:53:04.873Z,10.52
2022-10-29T06:55:32.435Z,11.65
2022-10-29T06:58:04.804Z,10.00
2022-10-29T07:00:32.822Z,9.10
2022-10-29T07:03:00.565Z,8.45
2022-10-29T07:05:27.657Z,9.95
2022-10-29T07:07:59.092Z,8.90
2022-10-29T07:10:29.169Z,10.50
2022-10-29T07:12:56.198Z,9.70
2022-10-29T07:15:27.310Z,9.85
2022-10-29T07:18:03.678Z,12.55
2022-10-29T07:20:32.807Z,8.98
2022-10-29T07:25:46.330Z,9.77
2022-10-29T07:26:07.165Z,0
2022-10-29T07:31:02.431Z,11.23
2022-10-29T07:36:16.467Z,12.57
2022-10-29T07:41:29.913Z,13.10
2022-10-29T07:43:56.674Z,11.63
2022-10-29T07:46:23.440Z,12.25
2022-10-29T07:48:50.150Z,13.57
2022-10-29T07:51:16.865Z,14.80
2022-10-29T07:53:43.613Z,13.80
2022-10-29T07:56:10.321Z,11.00
2022-10-29T07:58:37.060Z,13.07
2022-10-29T08:03:50.986Z,13.20
2022-10-29T08:06:17.868Z,12.65
2022-10-29T08:08:44.613Z,11.80
2022-10-29T08:11:11.313Z,12.20
2022-10-29T08:13:38.036Z,13.00
2022-10-29T08:16:05.017Z,12.00
2022-10-29T08:18:31.742Z,12.35
2022-10-29T08:20:58.469Z,12.88
2022-10-29T08:23:25.173Z,15.30
2022-10-29T08:25:51.932Z,15.95
2022-10-29T08:28:19.055Z,16.67
2022-10-29T08:33:37.060Z,16.70
2022-10-29T08:38:50.678Z,20.20
2022-10-29T08:41:33.585Z,21.17
2022-10-29T08:44:24.473Z,21.88
2022-10-29T08:46:57.097Z,20.80
2022-10-29T08:49:50.653Z,19.40
2022-10-29T08:52:23.701Z,20.08
2022-10-29T08:53:35.487Z,0
2022-10-29T08:55:18.153Z,19.60
2022-10-29T08:58:34.015Z,21.15
2022-10-29T09:03:47.500Z,18.95
2022-10-29T09:06:29.309Z,18.40
2022-10-29T09:09:04.963Z,17.60
2022-10-29T09:11:55.547Z,16.90
2022-10-29T09:18:11.227Z,18.63
2022-10-29T09:21:14.886Z,16.23
2022-10-29T09:24:18.629Z,14.70
2022-10-29T09:27:06.750Z,13.90
2022-10-29T09:29:42.986Z,14.10
2022-10-29T09:32:30.583Z,13.77
2022-10-29T09:35:02.760Z,13.20
2022-10-29T09:37:44.462Z,13.40
2022-10-29T09:40:33.043Z,12.90
2022-10-29T09:46:01.328Z,12.70
2022-10-29T09:48:45.739Z,12.30
2022-10-29T09:51:40.590Z,11.38
2022-10-29T09:54:07.618Z,12.75
2022-10-29T09:56:34.359Z,13.23
2022-10-29T09:59:26.008Z,12.73
2022-10-29T10:01:52.748Z,12.57
2022-10-29T10:04:26.552Z,10.95
2022-10-29T10:07:17.242Z,11.32
2022-10-29T10:09:58.331Z,10.10
2022-10-29T10:12:43.687Z,10.30
2022-10-29T10:15:16.547Z,10.00
2022-10-29T10:18:17.287Z,10.20
2022-10-29T10:20:46.996Z,9.98
2022-10-29T10:23:26.724Z,9.50
2022-10-29T10:26:00.289Z,10.02
2022-10-29T10:28:32.320Z,8.38
2022-10-29T10:31:12.114Z,8.80
2022-10-29T10:33:50.480Z,8.90
2022-10-29T10:36:18.777Z,9.70
2022-10-29T10:38:48.740Z,9.10
2022-10-29T10:41:22.938Z,9.63
2022-10-29T10:43:49.947Z,8.50
2022-10-29T10:49:15.929Z,8.30
2022-10-29T10:54:44.721Z,8.30
2022-10-29T10:57:11.564Z,7.53
2022-10-29T10:59:56.864Z,8.40
2022-10-29T11:08:36.817Z,7.15
2022-10-29T11:11:26.184Z,7.05
2022-10-29T11:16:47.875Z,6.37
2022-10-29T11:19:39.310Z,5.90
2022-10-29T11:22:08.805Z,7.53
2022-10-29T11:25:18.015Z,6.68
2022-10-29T11:28:08.147Z,7.18
2022-10-29T11:30:42.576Z,7.40
2022-10-29T11:33:33.615Z,7.30
2022-10-29T11:36:16.891Z,7.35
2022-10-29T11:38:50.733Z,7.05
2022-10-29T11:41:43.811Z,6.93
2022-10-29T11:44:15.415Z,7.10
2022-10-29T11:47:12.164Z,9.18
2022-10-29T11:53:05.335Z,9.55
2022-10-29T11:56:03.135Z,10.70
2022-10-29T11:58:52.366Z,10.75
2022-10-29T12:01:45.438Z,13.27
2022-10-29T12:04:44.940Z,12.10
2022-10-29T12:13:58.752Z,11.73
2022-10-29T12:16:40.438Z,13.40
2022-10-29T12:20:30.147Z,0
2022-10-29T12:28:44.602Z,12.65
2022-10-29T12:31:36.041Z,14.60
2022-10-29T12:34:02.712Z,13.93
2022-10-29T12:36:38.405Z,14.33
2022-10-29T12:39:13.286Z,14.40
2022-10-29T12:41:46.166Z,15.20
2022-10-29T12:44:27.715Z,13.93
2022-10-29T12:47:07.736Z,13.10
2022-10-29T12:49:53.576Z,13.50
2022-10-29T12:52:38.526Z,12.90
2022-10-29T12:55:07.702Z,13.93
2022-10-29T12:57:35.793Z,12.60
2022-10-29T13:00:24.448Z,12.77
2022-10-29T13:02:52.412Z,12.10
2022-10-29T13:05:36.460Z,11.90
2022-10-29T13:08:03.142Z,12.30
2022-10-29T13:10:35.613Z,12.27
2022-10-29T13:13:16.388Z,11.90
2022-10-29T13:15:50.257Z,11.55
2022-10-29T13:18:23.715Z,11.07
2022-10-29T13:20:53.416Z,11.10
2022-10-29T13:26:09.812Z,11.30
2022-10-29T13:31:23.048Z,11.70
2022-10-29T13:33:49.914Z,11.10
2022-10-29T13:36:16.571Z,11.77
2022-10-29T13:39:07.455Z,10.87
2022-10-29T13:41:39.958Z,10.73
2022-10-29T13:44:12.453Z,10.90
2022-10-29T13:47:19.461Z,9.90
2022-10-29T13:49:48.660Z,9.80
2022-10-29T13:52:17.225Z,14.00
2022-10-29T13:55:00.165Z,9.30
2022-10-29T13:57:37.789Z,9.60
2022-10-29T14:00:10.699Z,9.20
2022-10-29T14:05:49.116Z,8.65
2022-10-29T14:08:15.799Z,9.05
2022-10-29T14:10:45.223Z,8.60
2022-10-29T14:16:19.009Z,8.20
2022-10-29T14:21:40.192Z,7.90
2022-10-29T14:24:10.100Z,7.65
2022-10-29T14:26:38.926Z,8.27
2022-10-29T14:29:25.670Z,8.00
2022-10-29T14:32:16.033Z,18.50
2022-10-29T14:34:43.071Z,10.60
2022-10-29T14:37:31.065Z,11.80
2022-10-29T14:42:55.266Z,8.55
2022-10-29T14:45:28.721Z,7.38
2022-10-29T14:48:09.019Z,7.72
2022-10-29T14:50:36.410Z,7.43
2022-10-29T14:53:19.973Z,8.07
2022-10-29T14:55:48.778Z,7.70
2022-10-29T14:58:26.375Z,7.65
2022-10-29T15:01:16.631Z,8.20
2022-10-29T15:03:43.448Z,8.40
2022-10-29T15:06:20.980Z,8.77
2022-10-29T15:08:59.785Z,8.70
2022-10-29T15:11:33.731Z,8.90
2022-10-29T15:14:01.893Z,8.23
2022-10-29T15:19:17.863Z,8.13
2022-10-29T15:24:31.996Z,8.73
2022-10-29T15:29:48.410Z,9.87
2022-10-29T15:35:10.405Z,13.45
2022-10-29T15:37:42.708Z,26.35
2022-10-29T15:40:15.720Z,23.80
2022-10-29T15:42:42.972Z,17.60
2022-10-29T15:47:55.947Z,12.40
2022-10-29T15:50:32.551Z,13.20
2022-10-29T15:53:00.996Z,21.05
2022-10-29T15:55:46.075Z,18.23
2022-10-29T15:58:16.417Z,14.57
2022-10-29T16:00:43.256Z,13.30
2022-10-29T16:03:17.172Z,14.10
2022-10-29T16:05:46.296Z,13.15
2022-10-29T16:08:53.293Z,13.50
2022-10-29T16:14:09.787Z,13.40
2022-10-29T16:19:24.552Z,13.40
2022-10-29T16:24:37.887Z,13.32
2022-10-29T16:27:14.190Z,12.90
2022-10-29T16:29:41.084Z,12.40
2022-10-29T16:32:14.101Z,16.45
2022-10-29T16:34:40.808Z,18.40
2022-10-29T16:37:18.137Z,17.57
2022-10-29T16:42:35.911Z,33.50
2022-10-29T16:47:50.384Z,24.73
2022-10-29T16:50:19.437Z,16.77
2022-10-29T16:52:46.403Z,15.10
2022-10-29T16:55:14.202Z,14.80
2022-10-29T16:57:41.330Z,14.50
2022-10-29T17:02:56.006Z,15.10
2022-10-29T17:08:10.056Z,15.02
2022-10-29T17:10:37.171Z,15.65
2022-10-29T17:13:04.216Z,16.92
2022-10-29T17:15:30.937Z,20.47
2022-10-29T17:17:58.044Z,20.92
2022-10-29T17:20:24.968Z,17.98
2022-10-29T17:22:53.045Z,17.52
2022-10-29T17:25:19.806Z,17.70
2022-10-29T17:27:46.540Z,17.55
2022-10-29T17:30:13.319Z,17.20
2022-10-29T17:32:40.044Z,16.50
2022-10-29T17:35:07.008Z,17.45
2022-10-29T17:37:33.745Z,17.83
2022-10-29T17:40:03.291Z,18.30
2022-10-29T17:42:34.937Z,17.70
2022-10-29T17:45:01.634Z,17.70
2022-10-29T17:47:29.094Z,17.10
2022-10-29T17:49:55.912Z,17.38
2022-10-29T17:52:22.686Z,17.42
2022-10-29T17:54:49.445Z,17.80
2022-10-29T17:57:16.185Z,17.90
2022-10-29T17:59:42.937Z,18.25
2022-10-29T18:02:11.357Z,18.48
2022-10-29T18:04:38.277Z,17.73
2022-10-29T18:07:04.986Z,17.55
2022-10-29T18:09:31.717Z,16.80
2022-10-29T18:11:58.526Z,17.03
2022-10-29T18:14:25.252Z,18.77
2022-10-29T18:16:51.974Z,17.40
2022-10-29T18:19:18.752Z,18.50
2022-10-29T18:21:46.563Z,19.50
2022-10-29T18:24:13.273Z,20.20
2022-10-29T18:26:40.006Z,20.30
2022-10-29T18:29:09.532Z,21.48
2022-10-29T18:31:37.228Z,22.30
2022-10-29T18:34:06.045Z,19.88
2022-10-29T18:36:34.194Z,18.90
2022-10-29T18:39:01.007Z,19.85
2022-10-29T18:41:27.959Z,18.10
2022-10-29T18:43:54.678Z,17.92
2022-10-29T18:46:22.082Z,19.42
2022-10-29T18:48:49.575Z,19.88
2022-10-29T18:51:16.237Z,21.58
2022-10-29T18:53:43.138Z,21.90
2022-10-29T18:56:12.512Z,23.10
2022-10-29T18:58:40.174Z,23.50
2022-10-29T19:01:09.690Z,24.85
2022-10-29T19:03:37.452Z,27.90
2022-10-29T19:06:07.009Z,24.92
2022-10-29T19:11:26.257Z,23.90
2022-10-29T19:16:41.839Z,25.48
2022-10-29T19:21:58.823Z,35.00
2022-10-29T19:27:12.195Z,27.30
2022-10-29T19:32:25.548Z,26.77
2022-10-29T19:37:38.914Z,27.00
2022-10-29T19:40:06.985Z,26.00
2022-10-29T19:42:33.704Z,26.63
2022-10-29T19:45:00.472Z,27.00
2022-10-29T19:47:27.219Z,26.00
2022-10-29T19:49:53.949Z,26.60
2022-10-29T19:52:20.729Z,26.80
2022-10-29T19:54:47.448Z,28.92
2022-10-29T19:57:14.181Z,33.88
2022-10-29T19:59:40.883Z,28.85
2022-10-29T20:02:10.140Z,26.05
2022-10-29T20:04:36.958Z,24.98
2022-10-29T20:07:03.753Z,25.08
2022-10-29T20:09:30.467Z,23.42
2022-10-29T20:11:57.207Z,23.77
2022-10-29T20:14:28.781Z,24.02
2022-10-29T20:19:42.802Z,23.27
2022-10-29T20:22:09.766Z,25.73
2022-10-29T20:27:03.174Z,24.70
2022-10-29T20:29:29.932Z,25.55
2022-10-29T20:34:43.344Z,23.25
2022-10-29T20:39:56.732Z,23.58
2022-10-29T20:42:23.464Z,23.40
2022-10-29T20:44:50.175Z,24.10
2022-10-29T20:47:16.912Z,24.90
2022-10-29T20:49:43.631Z,24.90
2022-10-29T20:52:10.350Z,24.73
2022-10-29T20:54:37.091Z,25.10
2022-10-29T20:57:03.850Z,25.90
2022-10-29T21:02:17.438Z,26.92
2022-10-29T21:04:44.331Z,27.30
2022-10-29T21:07:11.043Z,28.92
2022-10-29T21:09:37.853Z,35.50
2022-10-29T21:12:04.960Z,31.52
2022-10-29T21:14:31.681Z,30.30
2022-10-29T21:16:58.435Z,28.43
2022-10-29T21:19:25.238Z,28.23
2022-10-29T21:21:51.958Z,28.10
2022-10-29T21:24:18.660Z,29.90
2022-10-29T21:26:45.366Z,28.70
2022-10-29T21:29:12.083Z,28.75
2022-10-29T21:31:38.828Z,28.73
2022-10-29T21:34:05.550Z,30.00
2022-10-29T21:39:18.915Z,29.70
2022-10-29T21:41:45.670Z,29.77
2022-10-29T21:44:12.362Z,30.08
2022-10-29T21:46:39.093Z,30.60
2022-10-29T21:49:05.894Z,29.27
2022-10-29T21:51:32.619Z,30.25
2022-10-29T21:53:59.343Z,30.63
2022-10-29T21:56:26.081Z,30.42
2022-10-29T21:58:52.794Z,30.03
2022-10-29T22:01:19.646Z,30.65
2022-10-29T22:03:47.641Z,35.00
2022-10-29T22:09:05.285Z,35.10
2022-10-29T22:14:18.615Z,32.15
2022-10-29T22:16:45.312Z,32.78
2022-10-29T22:19:12.049Z,32.90
2022-10-29T22:21:38.765Z,33.85
2022-10-29T22:24:05.893Z,33.60
2022-10-29T22:26:32.608Z,33.50
2022-10-29T22:28:59.310Z,33.72
2022-10-29T22:31:26.078Z,34.28
2022-10-29T22:33:53.008Z,33.45
2022-10-29T22:36:24.669Z,33.75
2022-10-29T22:41:45.427Z,34.55
2022-10-29T22:46:58.800Z,36.50
2022-10-29T22:51:53.876Z,35.30
2022-10-29T22:54:23.819Z,35.75
2022-10-29T22:59:17.160Z,36.00
2022-10-29T23:01:45.491Z,36.45
2022-10-29T23:07:01.763Z,37.97
2022-10-29T23:12:15.557Z,36.78
2022-10-29T23:17:28.937Z,38.10
2022-10-29T23:22:42.290Z,36.67
2022-10-29T23:25:09.321Z,38.72
2022-10-29T23:27:36.052Z,38.13
2022-10-29T23:30:02.824Z,37.53
2022-10-29T23:32:29.550Z,37.65
2022-10-29T23:34:56.291Z,37.17
2022-10-29T23:37:23.060Z,37.80
2022-10-29T23:39:49.774Z,37.47
2022-10-29T23:42:16.513Z,37.97
2022-10-29T23:44:43.288Z,39.63
2022-10-29T23:47:10.115Z,40.35
2022-10-29T23:49:36.857Z,39.67
2022-10-29T23:52:03.671Z,38.90
2022-10-29T23:54:30.377Z,38.92
2022-10-29T23:56:57.119Z,39.50
2022-10-29T23:59:23.878Z,38.83
